sensor_id;sensor_type;location;lat;lon;timestamp;noise_LAeq;noise_LA_min;noise_LA_max;noise_LA01;noise_LA95
73342;Laerm;61578;52.002;5.468;2023-12-22T00:00:21;43.17;40.87;45.76;;
73342;Laerm;61578;52.002;5.468;2023-12-22T00:00:52;43.14;40.87;45.33;;
73342;Laerm;61578;52.002;5.468;2023-12-22T00:01:23;43.04;40.59;45.51;;
73342;Laerm;61578;52.002;5.468;2023-12-22T00:01:54;43.06;40.70;46.70;;
73342;Laerm;61578;52.002;5.468;2023-12-22T00:02:25;43.15;41.05;45.72;;
73342;Laerm;61578;52.002;5.468;2023-12-22T00:02:59;43.64;41.09;46.80;;
73342;Laerm;61578;52.002;5.468;2023-12-22T00:03:29;44.36;41.14;59.21;;
73342;Laerm;61578;52.002;5.468;2023-12-22T00:04:03;43.45;41.30;46.13;;
73342;Laerm;61578;52.002;5.468;2023-12-22T00:04:36;43.40;41.15;46.33;;
73342;Laerm;61578;52.002;5.468;2023-12-22T00:05:07;44.14;41.27;47.89;;
73342;Laerm;61578;52.002;5.468;2023-12-22T00:05:38;44.04;41.28;47.79;;
73342;Laerm;61578;52.002;5.468;2023-12-22T00:06:12;43.39;41.19;46.16;;
73342;Laerm;61578;52.002;5.468;2023-12-22T00:06:42;43.26;40.75;45.95;;
73342;Laerm;61578;52.002;5.468;2023-12-22T00:07:13;43.25;40.95;47.13;;
73342;Laerm;61578;52.002;5.468;2023-12-22T00:07:44;43.30;40.66;45.98;;
73342;Laerm;61578;52.002;5.468;2023-12-22T00:08:15;43.27;41.10;46.18;;
73342;Laerm;61578;52.002;5.468;2023-12-22T00:08:45;43.11;40.87;45.62;;
73342;Laerm;61578;52.002;5.468;2023-12-22T00:09:16;43.08;40.41;45.68;;
73342;Laerm;61578;52.002;5.468;2023-12-22T00:09:47;43.23;40.44;46.08;;
73342;Laerm;61578;52.002;5.468;2023-12-22T00:10:18;43.22;40.88;45.90;;
73342;Laerm;61578;52.002;5.468;2023-12-22T00:10:49;43.49;40.68;46.45;;
73342;Laerm;61578;52.002;5.468;2023-12-22T00:11:20;43.47;40.66;46.36;;
73342;Laerm;61578;52.002;5.468;2023-12-22T00:11:50;43.51;41.06;46.42;;
73342;Laerm;61578;52.002;5.468;2023-12-22T00:12:21;44.28;41.39;47.34;;
73342;Laerm;61578;52.002;5.468;2023-12-22T00:12:52;43.72;40.69;46.57;;
73342;Laerm;61578;52.002;5.468;2023-12-22T00:13:23;43.26;41.13;45.58;;
73342;Laerm;61578;52.002;5.468;2023-12-22T00:13:53;43.30;40.82;45.94;;
73342;Laerm;61578;52.002;5.468;2023-12-22T00:14:24;43.33;40.84;45.91;;
73342;Laerm;61578;52.002;5.468;2023-12-22T00:14:55;43.13;40.90;45.62;;
73342;Laerm;61578;52.002;5.468;2023-12-22T00:15:26;43.48;40.94;46.32;;
73342;Laerm;61578;52.002;5.468;2023-12-22T00:15:56;43.12;40.92;46.03;;
73342;Laerm;61578;52.002;5.468;2023-12-22T00:16:27;43.21;40.61;47.50;;
73342;Laerm;61578;52.002;5.468;2023-12-22T00:16:58;42.94;40.72;45.75;;
73342;Laerm;61578;52.002;5.468;2023-12-22T00:17:29;43.08;40.72;45.59;;
73342;Laerm;61578;52.002;5.468;2023-12-22T00:17:59;43.04;40.67;45.49;;
73342;Laerm;61578;52.002;5.468;2023-12-22T00:18:30;43.13;41.13;46.00;;
73342;Laerm;61578;52.002;5.468;2023-12-22T00:19:01;43.13;40.74;45.93;;
73342;Laerm;61578;52.002;5.468;2023-12-22T00:19:32;43.04;41.03;45.43;;
73342;Laerm;61578;52.002;5.468;2023-12-22T00:20:03;43.08;40.55;45.96;;
73342;Laerm;61578;52.002;5.468;2023-12-22T00:20:34;43.32;41.07;45.97;;
73342;Laerm;61578;52.002;5.468;2023-12-22T00:21:10;43.36;40.76;46.25;;
73342;Laerm;61578;52.002;5.468;2023-12-22T00:21:41;43.07;41.01;45.36;;
73342;Laerm;61578;52.002;5.468;2023-12-22T00:22:12;43.08;41.07;45.33;;
73342;Laerm;61578;52.002;5.468;2023-12-22T00:22:42;42.89;40.60;45.78;;
73342;Laerm;61578;52.002;5.468;2023-12-22T00:23:13;43.09;40.54;46.28;;
73342;Laerm;61578;52.002;5.468;2023-12-22T00:23:44;42.99;40.45;46.15;;
73342;Laerm;61578;52.002;5.468;2023-12-22T00:24:15;42.95;40.49;45.21;;
73342;Laerm;61578;52.002;5.468;2023-12-22T00:24:45;43.18;40.76;46.15;;
73342;Laerm;61578;52.002;5.468;2023-12-22T00:25:16;43.69;40.26;47.86;;
73342;Laerm;61578;52.002;5.468;2023-12-22T00:25:47;43.64;41.03;46.55;;
73342;Laerm;61578;52.002;5.468;2023-12-22T00:26:18;43.77;40.97;47.49;;
73342;Laerm;61578;52.002;5.468;2023-12-22T00:26:48;43.78;41.38;46.49;;
73342;Laerm;61578;52.002;5.468;2023-12-22T00:27:19;46.40;42.61;53.28;;
73342;Laerm;61578;52.002;5.468;2023-12-22T00:27:50;49.52;44.11;57.02;;
73342;Laerm;61578;52.002;5.468;2023-12-22T00:28:21;50.02;47.46;60.05;;
73342;Laerm;61578;52.002;5.468;2023-12-22T00:28:51;52.27;48.22;60.50;;
73342;Laerm;61578;52.002;5.468;2023-12-22T00:29:22;53.80;49.77;66.76;;
73342;Laerm;61578;52.002;5.468;2023-12-22T00:29:53;58.39;54.79;67.71;;
73342;Laerm;61578;52.002;5.468;2023-12-22T00:30:24;54.49;49.30;61.03;;
73342;Laerm;61578;52.002;5.468;2023-12-22T00:30:55;53.02;49.45;62.57;;
73342;Laerm;61578;52.002;5.468;2023-12-22T00:31:26;57.42;51.61;64.44;;
73342;Laerm;61578;52.002;5.468;2023-12-22T00:31:56;57.27;54.12;62.96;;
73342;Laerm;61578;52.002;5.468;2023-12-22T00:32:27;55.78;49.17;64.56;;
73342;Laerm;61578;52.002;5.468;2023-12-22T00:32:58;51.10;47.39;59.70;;
73342;Laerm;61578;52.002;5.468;2023-12-22T00:33:29;52.10;47.40;57.60;;
73342;Laerm;61578;52.002;5.468;2023-12-22T00:33:59;49.63;46.41;56.99;;
73342;Laerm;61578;52.002;5.468;2023-12-22T00:34:31;49.96;46.30;62.80;;
73342;Laerm;61578;52.002;5.468;2023-12-22T00:35:02;49.29;46.06;60.92;;
73342;Laerm;61578;52.002;5.468;2023-12-22T00:35:35;47.41;43.89;63.46;;
73342;Laerm;61578;52.002;5.468;2023-12-22T00:36:07;48.15;43.96;64.13;;
73342;Laerm;61578;52.002;5.468;2023-12-22T00:36:38;48.39;45.47;60.60;;
73342;Laerm;61578;52.002;5.468;2023-12-22T00:37:09;50.45;45.43;57.93;;
73342;Laerm;61578;52.002;5.468;2023-12-22T00:37:40;51.52;45.72;65.42;;
73342;Laerm;61578;52.002;5.468;2023-12-22T00:38:10;46.18;43.71;62.16;;
73342;Laerm;61578;52.002;5.468;2023-12-22T00:38:41;45.89;43.50;54.32;;
73342;Laerm;61578;52.002;5.468;2023-12-22T00:39:12;47.25;44.12;54.23;;
73342;Laerm;61578;52.002;5.468;2023-12-22T00:39:43;46.48;43.23;65.67;;
73342;Laerm;61578;52.002;5.468;2023-12-22T00:40:13;46.26;43.00;50.33;;
73342;Laerm;61578;52.002;5.468;2023-12-22T00:40:44;45.66;42.67;59.74;;
73342;Laerm;61578;52.002;5.468;2023-12-22T00:41:15;44.14;41.99;50.52;;
73342;Laerm;61578;52.002;5.468;2023-12-22T00:41:46;44.91;42.14;49.94;;
73342;Laerm;61578;52.002;5.468;2023-12-22T00:42:16;48.41;44.61;53.76;;
73342;Laerm;61578;52.002;5.468;2023-12-22T00:42:47;46.63;42.56;50.52;;
73342;Laerm;61578;52.002;5.468;2023-12-22T00:43:18;44.55;42.18;47.65;;
73342;Laerm;61578;52.002;5.468;2023-12-22T00:43:48;46.61;43.31;55.60;;
73342;Laerm;61578;52.002;5.468;2023-12-22T00:44:19;46.74;43.19;58.40;;
73342;Laerm;61578;52.002;5.468;2023-12-22T00:44:50;48.71;43.81;55.21;;
73342;Laerm;61578;52.002;5.468;2023-12-22T00:45:21;47.32;43.40;63.73;;
73342;Laerm;61578;52.002;5.468;2023-12-22T00:45:52;44.04;40.81;47.40;;
73342;Laerm;61578;52.002;5.468;2023-12-22T00:46:23;44.10;41.75;58.92;;
73342;Laerm;61578;52.002;5.468;2023-12-22T00:46:53;43.74;41.17;46.28;;
73342;Laerm;61578;52.002;5.468;2023-12-22T00:47:24;43.92;41.34;49.03;;
73342;Laerm;61578;52.002;5.468;2023-12-22T00:47:55;44.33;41.86;58.83;;
73342;Laerm;61578;52.002;5.468;2023-12-22T00:48:26;45.29;42.63;48.61;;
73342;Laerm;61578;52.002;5.468;2023-12-22T00:48:56;43.50;40.67;46.04;;
73342;Laerm;61578;52.002;5.468;2023-12-22T00:49:27;43.50;41.06;46.17;;
73342;Laerm;61578;52.002;5.468;2023-12-22T00:49:58;46.23;42.71;50.11;;
73342;Laerm;61578;52.002;5.468;2023-12-22T00:50:29;46.28;42.34;51.13;;
73342;Laerm;61578;52.002;5.468;2023-12-22T00:51:00;44.56;42.45;50.59;;
73342;Laerm;61578;52.002;5.468;2023-12-22T00:51:30;44.31;42.21;47.82;;
73342;Laerm;61578;52.002;5.468;2023-12-22T00:52:01;44.51;41.88;61.78;;
73342;Laerm;61578;52.002;5.468;2023-12-22T00:52:32;44.47;41.62;48.19;;
73342;Laerm;61578;52.002;5.468;2023-12-22T00:53:04;44.66;42.15;57.60;;
73342;Laerm;61578;52.002;5.468;2023-12-22T00:53:34;45.04;42.58;60.56;;
73342;Laerm;61578;52.002;5.468;2023-12-22T00:54:05;45.09;42.13;52.01;;
73342;Laerm;61578;52.002;5.468;2023-12-22T00:54:36;45.39;42.88;57.88;;
73342;Laerm;61578;52.002;5.468;2023-12-22T00:55:07;45.78;43.00;55.95;;
73342;Laerm;61578;52.002;5.468;2023-12-22T00:55:38;46.11;43.55;53.95;;
73342;Laerm;61578;52.002;5.468;2023-12-22T00:56:09;46.09;43.18;61.63;;
73342;Laerm;61578;52.002;5.468;2023-12-22T00:56:43;47.43;43.62;55.56;;
73342;Laerm;61578;52.002;5.468;2023-12-22T00:57:14;49.23;43.28;62.40;;
73342;Laerm;61578;52.002;5.468;2023-12-22T00:57:44;46.45;43.00;63.70;;
73342;Laerm;61578;52.002;5.468;2023-12-22T00:58:15;45.73;43.46;62.01;;
73342;Laerm;61578;52.002;5.468;2023-12-22T00:58:46;45.76;43.55;62.82;;
73342;Laerm;61578;52.002;5.468;2023-12-22T00:59:17;46.09;43.52;57.55;;
73342;Laerm;61578;52.002;5.468;2023-12-22T00:59:47;46.96;44.44;60.27;;
73342;Laerm;61578;52.002;5.468;2023-12-22T01:00:18;46.93;44.64;56.40;;
73342;Laerm;61578;52.002;5.468;2023-12-22T01:00:49;47.62;44.83;59.64;;
73342;Laerm;61578;52.002;5.468;2023-12-22T01:01:20;46.59;44.10;61.64;;
73342;Laerm;61578;52.002;5.468;2023-12-22T01:01:51;45.96;43.31;56.45;;
73342;Laerm;61578;52.002;5.468;2023-12-22T01:02:22;46.91;43.91;60.46;;
73342;Laerm;61578;52.002;5.468;2023-12-22T01:02:53;46.34;43.46;53.75;;
73342;Laerm;61578;52.002;5.468;2023-12-22T01:03:24;52.07;44.89;67.96;;
73342;Laerm;61578;52.002;5.468;2023-12-22T01:03:54;48.43;44.99;53.21;;
73342;Laerm;61578;52.002;5.468;2023-12-22T01:04:25;47.67;44.51;61.05;;
73342;Laerm;61578;52.002;5.468;2023-12-22T01:04:56;47.01;44.09;60.53;;
73342;Laerm;61578;52.002;5.468;2023-12-22T01:05:27;46.11;43.37;61.71;;
73342;Laerm;61578;52.002;5.468;2023-12-22T01:05:57;47.32;44.30;59.46;;
73342;Laerm;61578;52.002;5.468;2023-12-22T01:06:28;46.17;43.52;60.42;;
73342;Laerm;61578;52.002;5.468;2023-12-22T01:06:59;45.88;43.29;60.17;;
73342;Laerm;61578;52.002;5.468;2023-12-22T01:07:33;47.72;42.99;67.24;;
73342;Laerm;61578;52.002;5.468;2023-12-22T01:08:04;45.88;42.98;54.07;;
73342;Laerm;61578;52.002;5.468;2023-12-22T01:08:37;47.51;43.14;55.12;;
73342;Laerm;61578;52.002;5.468;2023-12-22T01:09:08;45.18;42.18;52.53;;
73342;Laerm;61578;52.002;5.468;2023-12-22T01:09:39;45.17;42.45;61.62;;
73342;Laerm;61578;52.002;5.468;2023-12-22T01:10:10;44.34;41.59;58.01;;
73342;Laerm;61578;52.002;5.468;2023-12-22T01:10:41;44.88;41.32;55.96;;
73342;Laerm;61578;52.002;5.468;2023-12-22T01:11:12;47.12;43.44;66.32;;
73342;Laerm;61578;52.002;5.468;2023-12-22T01:11:43;46.47;42.69;56.31;;
73342;Laerm;61578;52.002;5.468;2023-12-22T01:12:13;44.36;41.69;58.11;;
73342;Laerm;61578;52.002;5.468;2023-12-22T01:12:44;44.44;41.93;49.34;;
73342;Laerm;61578;52.002;5.468;2023-12-22T01:13:15;44.78;42.56;53.66;;
73342;Laerm;61578;52.002;5.468;2023-12-22T01:13:46;45.93;42.83;57.68;;
73342;Laerm;61578;52.002;5.468;2023-12-22T01:14:17;45.98;43.07;50.31;;
73342;Laerm;61578;52.002;5.468;2023-12-22T01:14:47;44.59;41.60;55.33;;
73342;Laerm;61578;52.002;5.468;2023-12-22T01:15:22;44.81;42.29;54.29;;
73342;Laerm;61578;52.002;5.468;2023-12-22T01:15:53;45.58;42.07;53.22;;
73342;Laerm;61578;52.002;5.468;2023-12-22T01:16:24;47.63;45.16;55.82;;
73342;Laerm;61578;52.002;5.468;2023-12-22T01:16:54;46.07;43.45;58.37;;
73342;Laerm;61578;52.002;5.468;2023-12-22T01:17:25;46.18;43.86;60.58;;
73342;Laerm;61578;52.002;5.468;2023-12-22T01:17:56;45.59;43.30;58.82;;
73342;Laerm;61578;52.002;5.468;2023-12-22T01:18:27;45.85;43.28;61.20;;
73342;Laerm;61578;52.002;5.468;2023-12-22T01:19:00;46.87;43.28;68.48;;
73342;Laerm;61578;52.002;5.468;2023-12-22T01:19:34;46.54;43.29;59.28;;
73342;Laerm;61578;52.002;5.468;2023-12-22T01:20:05;45.36;43.16;53.03;;
73342;Laerm;61578;52.002;5.468;2023-12-22T01:20:37;45.33;43.00;56.13;;
73342;Laerm;61578;52.002;5.468;2023-12-22T01:21:08;45.67;42.91;58.46;;
73342;Laerm;61578;52.002;5.468;2023-12-22T01:21:38;45.64;43.23;62.25;;
73342;Laerm;61578;52.002;5.468;2023-12-22T01:22:09;45.84;43.00;60.88;;
73342;Laerm;61578;52.002;5.468;2023-12-22T01:22:40;48.28;43.68;57.09;;
73342;Laerm;61578;52.002;5.468;2023-12-22T01:23:11;45.52;43.03;62.10;;
73342;Laerm;61578;52.002;5.468;2023-12-22T01:23:42;46.43;44.15;58.02;;
73342;Laerm;61578;52.002;5.468;2023-12-22T01:24:12;46.95;44.16;63.21;;
73342;Laerm;61578;52.002;5.468;2023-12-22T01:24:43;46.00;43.40;62.15;;
73342;Laerm;61578;52.002;5.468;2023-12-22T01:25:15;46.76;43.62;63.58;;
73342;Laerm;61578;52.002;5.468;2023-12-22T01:25:46;46.35;42.97;61.69;;
73342;Laerm;61578;52.002;5.468;2023-12-22T01:26:17;45.84;43.42;60.77;;
73342;Laerm;61578;52.002;5.468;2023-12-22T01:26:48;44.57;42.17;58.28;;
73342;Laerm;61578;52.002;5.468;2023-12-22T01:27:18;46.41;42.30;58.30;;
73342;Laerm;61578;52.002;5.468;2023-12-22T01:27:50;46.51;43.48;60.08;;
73342;Laerm;61578;52.002;5.468;2023-12-22T01:28:22;44.19;41.81;46.64;;
73342;Laerm;61578;52.002;5.468;2023-12-22T01:28:53;46.52;42.47;49.98;;
73342;Laerm;61578;52.002;5.468;2023-12-22T01:29:24;45.86;42.69;48.92;;
73342;Laerm;61578;52.002;5.468;2023-12-22T01:29:55;45.01;41.61;48.25;;
73342;Laerm;61578;52.002;5.468;2023-12-22T01:30:25;44.26;41.52;52.77;;
73342;Laerm;61578;52.002;5.468;2023-12-22T01:30:56;44.36;41.63;49.93;;
73342;Laerm;61578;52.002;5.468;2023-12-22T01:31:27;45.06;41.96;48.03;;
73342;Laerm;61578;52.002;5.468;2023-12-22T01:31:57;44.04;41.84;46.21;;
73342;Laerm;61578;52.002;5.468;2023-12-22T01:32:28;44.22;41.82;47.84;;
73342;Laerm;61578;52.002;5.468;2023-12-22T01:33:04;45.78;42.27;49.19;;
73342;Laerm;61578;52.002;5.468;2023-12-22T01:33:35;44.07;41.72;47.46;;
73342;Laerm;61578;52.002;5.468;2023-12-22T01:34:07;44.59;41.74;47.86;;
73342;Laerm;61578;52.002;5.468;2023-12-22T01:34:37;44.93;41.50;62.24;;
73342;Laerm;61578;52.002;5.468;2023-12-22T01:35:08;43.42;41.21;45.90;;
73342;Laerm;61578;52.002;5.468;2023-12-22T01:35:40;43.96;41.65;46.54;;
73342;Laerm;61578;52.002;5.468;2023-12-22T01:36:11;43.94;41.45;46.66;;
73342;Laerm;61578;52.002;5.468;2023-12-22T01:36:42;43.73;41.37;46.44;;
73342;Laerm;61578;52.002;5.468;2023-12-22T01:37:12;43.55;40.94;45.82;;
73342;Laerm;61578;52.002;5.468;2023-12-22T01:37:43;43.36;41.26;46.19;;
73342;Laerm;61578;52.002;5.468;2023-12-22T01:38:14;43.41;41.06;45.94;;
73342;Laerm;61578;52.002;5.468;2023-12-22T01:38:45;43.50;40.74;45.83;;
73342;Laerm;61578;52.002;5.468;2023-12-22T01:39:17;43.64;41.25;47.06;;
73342;Laerm;61578;52.002;5.468;2023-12-22T01:39:47;43.74;41.14;47.16;;
73342;Laerm;61578;52.002;5.468;2023-12-22T01:40:18;43.76;40.78;46.73;;
73342;Laerm;61578;52.002;5.468;2023-12-22T01:40:49;43.68;40.85;47.14;;
73342;Laerm;61578;52.002;5.468;2023-12-22T01:41:19;43.37;41.07;46.11;;
73342;Laerm;61578;52.002;5.468;2023-12-22T01:41:50;43.88;41.30;47.07;;
73342;Laerm;61578;52.002;5.468;2023-12-22T01:42:21;43.57;41.50;46.44;;
73342;Laerm;61578;52.002;5.468;2023-12-22T01:42:52;43.32;41.17;45.95;;
73342;Laerm;61578;52.002;5.468;2023-12-22T01:43:22;43.22;40.62;45.57;;
73342;Laerm;61578;52.002;5.468;2023-12-22T01:43:54;43.47;41.00;46.21;;
73342;Laerm;61578;52.002;5.468;2023-12-22T01:44:25;43.38;40.60;45.50;;
73342;Laerm;61578;52.002;5.468;2023-12-22T01:44:56;43.76;41.17;47.09;;
73342;Laerm;61578;52.002;5.468;2023-12-22T01:45:27;43.49;40.90;46.28;;
73342;Laerm;61578;52.002;5.468;2023-12-22T01:46:01;43.33;40.73;45.54;;
73342;Laerm;61578;52.002;5.468;2023-12-22T01:46:34;43.57;40.89;46.94;;
73342;Laerm;61578;52.002;5.468;2023-12-22T01:47:06;43.53;40.92;46.53;;
73342;Laerm;61578;52.002;5.468;2023-12-22T01:47:37;43.53;41.19;46.26;;
73342;Laerm;61578;52.002;5.468;2023-12-22T01:48:09;43.46;40.70;45.92;;
73342;Laerm;61578;52.002;5.468;2023-12-22T01:48:41;43.54;40.53;45.86;;
73342;Laerm;61578;52.002;5.468;2023-12-22T01:49:13;43.55;41.48;47.98;;
73342;Laerm;61578;52.002;5.468;2023-12-22T01:49:45;43.84;41.38;46.61;;
73342;Laerm;61578;52.002;5.468;2023-12-22T01:50:16;43.78;41.24;48.09;;
73342;Laerm;61578;52.002;5.468;2023-12-22T01:50:47;43.62;40.99;46.30;;
73342;Laerm;61578;52.002;5.468;2023-12-22T01:51:19;43.83;41.43;49.42;;
73342;Laerm;61578;52.002;5.468;2023-12-22T01:51:50;43.74;40.70;46.72;;
73342;Laerm;61578;52.002;5.468;2023-12-22T01:52:22;43.41;40.90;54.77;;
73342;Laerm;61578;52.002;5.468;2023-12-22T01:52:54;43.33;40.82;55.07;;
73342;Laerm;61578;52.002;5.468;2023-12-22T01:53:28;43.24;40.93;45.89;;
73342;Laerm;61578;52.002;5.468;2023-12-22T01:54:00;43.35;40.97;45.90;;
73342;Laerm;61578;52.002;5.468;2023-12-22T01:54:31;43.33;41.01;46.08;;
73342;Laerm;61578;52.002;5.468;2023-12-22T01:55:03;43.35;40.86;46.29;;
73342;Laerm;61578;52.002;5.468;2023-12-22T01:55:34;43.49;41.06;45.86;;
73342;Laerm;61578;52.002;5.468;2023-12-22T01:56:06;43.55;40.74;58.47;;
73342;Laerm;61578;52.002;5.468;2023-12-22T01:56:37;43.31;41.00;46.18;;
73342;Laerm;61578;52.002;5.468;2023-12-22T01:57:13;43.69;41.31;46.78;;
73342;Laerm;61578;52.002;5.468;2023-12-22T01:57:46;43.48;41.07;46.15;;
73342;Laerm;61578;52.002;5.468;2023-12-22T01:58:19;43.50;41.03;46.13;;
73342;Laerm;61578;52.002;5.468;2023-12-22T01:58:57;43.32;40.70;46.82;;
73342;Laerm;61578;52.002;5.468;2023-12-22T01:59:32;43.60;40.75;61.79;;
73342;Laerm;61578;52.002;5.468;2023-12-22T02:00:06;43.42;41.19;46.00;;
73342;Laerm;61578;52.002;5.468;2023-12-22T02:00:37;43.49;41.29;46.70;;
73342;Laerm;61578;52.002;5.468;2023-12-22T02:01:08;43.44;41.21;45.96;;
73342;Laerm;61578;52.002;5.468;2023-12-22T02:01:41;43.31;40.28;45.94;;
73342;Laerm;61578;52.002;5.468;2023-12-22T02:02:15;43.63;40.73;46.94;;
73342;Laerm;61578;52.002;5.468;2023-12-22T02:02:47;43.45;41.12;45.86;;
73342;Laerm;61578;52.002;5.468;2023-12-22T02:03:19;44.02;41.66;46.74;;
73342;Laerm;61578;52.002;5.468;2023-12-22T02:03:52;43.48;40.66;46.77;;
73342;Laerm;61578;52.002;5.468;2023-12-22T02:04:25;43.39;40.67;46.31;;
73342;Laerm;61578;52.002;5.468;2023-12-22T02:04:59;43.60;40.82;46.64;;
73342;Laerm;61578;52.002;5.468;2023-12-22T02:05:30;43.30;40.67;45.97;;
73342;Laerm;61578;52.002;5.468;2023-12-22T02:06:01;43.50;41.17;46.15;;
73342;Laerm;61578;52.002;5.468;2023-12-22T02:06:34;43.53;41.40;46.40;;
73342;Laerm;61578;52.002;5.468;2023-12-22T02:07:09;43.35;40.38;46.28;;
73342;Laerm;61578;52.002;5.468;2023-12-22T02:07:42;43.22;40.90;46.00;;
73342;Laerm;61578;52.002;5.468;2023-12-22T02:08:18;43.70;41.06;50.71;;
73342;Laerm;61578;52.002;5.468;2023-12-22T02:08:50;44.11;41.56;47.23;;
73342;Laerm;61578;52.002;5.468;2023-12-22T02:09:20;43.45;41.15;46.35;;
73342;Laerm;61578;52.002;5.468;2023-12-22T02:09:51;43.46;41.24;46.39;;
73342;Laerm;61578;52.002;5.468;2023-12-22T02:10:22;43.46;41.32;46.14;;
73342;Laerm;61578;52.002;5.468;2023-12-22T02:10:53;43.39;40.98;46.18;;
73342;Laerm;61578;52.002;5.468;2023-12-22T02:11:26;43.36;41.02;46.10;;
73342;Laerm;61578;52.002;5.468;2023-12-22T02:11:59;43.25;40.84;45.95;;
73342;Laerm;61578;52.002;5.468;2023-12-22T02:12:30;43.26;40.92;46.69;;
73342;Laerm;61578;52.002;5.468;2023-12-22T02:13:02;43.34;41.09;45.83;;
73342;Laerm;61578;52.002;5.468;2023-12-22T02:13:34;43.40;40.75;46.30;;
73342;Laerm;61578;52.002;5.468;2023-12-22T02:14:05;43.45;41.00;45.82;;
73342;Laerm;61578;52.002;5.468;2023-12-22T02:14:36;43.50;41.14;46.81;;
73342;Laerm;61578;52.002;5.468;2023-12-22T02:15:08;43.33;41.16;45.74;;
73342;Laerm;61578;52.002;5.468;2023-12-22T02:15:39;43.48;41.14;45.96;;
73342;Laerm;61578;52.002;5.468;2023-12-22T02:16:35;43.42;41.01;46.59;;
73342;Laerm;61578;52.002;5.468;2023-12-22T02:17:20;43.31;40.87;46.59;;
73342;Laerm;61578;52.002;5.468;2023-12-22T02:18:08;43.24;40.88;46.12;;
73342;Laerm;61578;52.002;5.468;2023-12-22T02:18:46;43.28;40.90;45.51;;
73342;Laerm;61578;52.002;5.468;2023-12-22T02:20:10;43.45;40.82;47.07;;
73342;Laerm;61578;52.002;5.468;2023-12-22T02:20:42;43.35;40.46;46.91;;
73342;Laerm;61578;52.002;5.468;2023-12-22T02:21:14;43.20;41.16;45.76;;
73342;Laerm;61578;52.002;5.468;2023-12-22T02:22:08;43.32;40.81;46.54;;
73342;Laerm;61578;52.002;5.468;2023-12-22T02:22:39;43.17;40.74;45.86;;
73342;Laerm;61578;52.002;5.468;2023-12-22T02:23:10;43.21;40.75;45.84;;
73342;Laerm;61578;52.002;5.468;2023-12-22T02:23:41;43.14;41.02;45.34;;
73342;Laerm;61578;52.002;5.468;2023-12-22T02:24:12;43.33;40.99;46.91;;
73342;Laerm;61578;52.002;5.468;2023-12-22T02:24:42;43.36;40.94;47.19;;
73342;Laerm;61578;52.002;5.468;2023-12-22T02:25:13;43.40;40.57;46.29;;
73342;Laerm;61578;52.002;5.468;2023-12-22T02:25:44;43.40;40.79;45.92;;
73342;Laerm;61578;52.002;5.468;2023-12-22T02:26:29;43.37;41.13;46.30;;
73342;Laerm;61578;52.002;5.468;2023-12-22T02:27:28;43.30;40.73;45.93;;
73342;Laerm;61578;52.002;5.468;2023-12-22T02:28:20;43.28;40.26;46.32;;
73342;Laerm;61578;52.002;5.468;2023-12-22T02:28:57;43.31;40.64;46.07;;
73342;Laerm;61578;52.002;5.468;2023-12-22T02:29:36;43.17;40.61;45.72;;
73342;Laerm;61578;52.002;5.468;2023-12-22T02:31:40;43.22;40.73;45.62;;
73342;Laerm;61578;52.002;5.468;2023-12-22T02:32:40;43.19;40.36;57.43;;
73342;Laerm;61578;52.002;5.468;2023-12-22T02:33:16;43.20;40.59;46.79;;
73342;Laerm;61578;52.002;5.468;2023-12-22T02:33:53;43.24;40.98;46.24;;
73342;Laerm;61578;52.002;5.468;2023-12-22T02:34:27;43.30;41.10;46.20;;
73342;Laerm;61578;52.002;5.468;2023-12-22T02:35:07;43.28;40.25;45.94;;
73342;Laerm;61578;52.002;5.468;2023-12-22T02:35:44;43.07;40.41;45.76;;
73342;Laerm;61578;52.002;5.468;2023-12-22T02:36:18;43.15;40.80;45.82;;
73342;Laerm;61578;52.002;5.468;2023-12-22T02:36:54;43.38;41.11;45.98;;
73342;Laerm;61578;52.002;5.468;2023-12-22T02:37:28;43.41;41.31;46.25;;
73342;Laerm;61578;52.002;5.468;2023-12-22T02:38:02;43.23;40.71;46.19;;
73342;Laerm;61578;52.002;5.468;2023-12-22T02:38:35;43.10;40.53;45.53;;
73342;Laerm;61578;52.002;5.468;2023-12-22T02:39:09;43.03;40.77;46.11;;
73342;Laerm;61578;52.002;5.468;2023-12-22T02:39:42;43.03;40.88;45.98;;
73342;Laerm;61578;52.002;5.468;2023-12-22T02:40:15;43.22;40.70;46.01;;
73342;Laerm;61578;52.002;5.468;2023-12-22T02:40:48;43.20;41.03;46.25;;
73342;Laerm;61578;52.002;5.468;2023-12-22T02:41:19;43.15;40.73;46.15;;
73342;Laerm;61578;52.002;5.468;2023-12-22T02:41:51;43.08;40.72;45.56;;
73342;Laerm;61578;52.002;5.468;2023-12-22T02:42:22;43.22;40.80;46.70;;
73342;Laerm;61578;52.002;5.468;2023-12-22T02:43:02;43.34;40.80;46.23;;
73342;Laerm;61578;52.002;5.468;2023-12-22T02:43:33;43.14;41.07;45.48;;
73342;Laerm;61578;52.002;5.468;2023-12-22T02:44:04;43.15;40.79;45.86;;
73342;Laerm;61578;52.002;5.468;2023-12-22T02:44:35;43.41;41.06;46.03;;
73342;Laerm;61578;52.002;5.468;2023-12-22T02:45:16;43.18;40.82;45.97;;
73342;Laerm;61578;52.002;5.468;2023-12-22T02:45:53;43.16;41.00;45.86;;
73342;Laerm;61578;52.002;5.468;2023-12-22T02:46:24;43.22;40.87;45.69;;
73342;Laerm;61578;52.002;5.468;2023-12-22T02:46:55;43.53;41.01;61.23;;
73342;Laerm;61578;52.002;5.468;2023-12-22T02:47:26;43.21;41.02;45.32;;
73342;Laerm;61578;52.002;5.468;2023-12-22T02:47:58;43.40;40.46;45.76;;
73342;Laerm;61578;52.002;5.468;2023-12-22T02:48:29;43.40;40.75;48.40;;
73342;Laerm;61578;52.002;5.468;2023-12-22T02:49:00;43.30;40.85;45.96;;
73342;Laerm;61578;52.002;5.468;2023-12-22T02:49:30;43.12;40.84;45.73;;
73342;Laerm;61578;52.002;5.468;2023-12-22T02:50:01;43.03;40.36;46.15;;
73342;Laerm;61578;52.002;5.468;2023-12-22T02:50:33;43.55;40.92;46.50;;
73342;Laerm;61578;52.002;5.468;2023-12-22T02:51:04;43.35;40.93;46.20;;
73342;Laerm;61578;52.002;5.468;2023-12-22T02:51:35;43.38;40.70;47.32;;
73342;Laerm;61578;52.002;5.468;2023-12-22T02:52:06;43.37;40.92;45.85;;
73342;Laerm;61578;52.002;5.468;2023-12-22T02:52:37;43.33;41.06;47.00;;
73342;Laerm;61578;52.002;5.468;2023-12-22T02:53:08;43.27;41.16;46.46;;
73342;Laerm;61578;52.002;5.468;2023-12-22T02:53:38;43.32;40.91;46.04;;
73342;Laerm;61578;52.002;5.468;2023-12-22T02:54:09;43.25;40.86;45.75;;
73342;Laerm;61578;52.002;5.468;2023-12-22T02:54:40;43.33;40.79;46.98;;
73342;Laerm;61578;52.002;5.468;2023-12-22T02:55:12;43.33;40.72;45.86;;
73342;Laerm;61578;52.002;5.468;2023-12-22T02:55:43;43.22;40.76;46.08;;
73342;Laerm;61578;52.002;5.468;2023-12-22T02:56:17;43.32;41.16;45.79;;
73342;Laerm;61578;52.002;5.468;2023-12-22T02:56:48;43.37;40.91;45.69;;
73342;Laerm;61578;52.002;5.468;2023-12-22T02:57:19;43.35;40.30;46.34;;
73342;Laerm;61578;52.002;5.468;2023-12-22T02:57:49;43.77;41.19;46.29;;
73342;Laerm;61578;52.002;5.468;2023-12-22T02:58:20;43.34;40.93;46.77;;
73342;Laerm;61578;52.002;5.468;2023-12-22T02:58:51;43.19;40.62;45.44;;
73342;Laerm;61578;52.002;5.468;2023-12-22T02:59:22;43.37;41.02;47.28;;
73342;Laerm;61578;52.002;5.468;2023-12-22T02:59:53;43.29;40.94;45.96;;
73342;Laerm;61578;52.002;5.468;2023-12-22T03:00:23;43.36;40.74;46.86;;
73342;Laerm;61578;52.002;5.468;2023-12-22T03:00:54;43.22;40.98;46.01;;
73342;Laerm;61578;52.002;5.468;2023-12-22T03:01:25;43.37;41.01;45.92;;
73342;Laerm;61578;52.002;5.468;2023-12-22T03:01:55;43.33;40.91;45.74;;